Time;durP1;ratioP1;P1;durP2;ratioP2;P2;SDS_P1;SDS_P2;PMS_P1;PMS_P2;Temp;Humidity;BMP_temperature;BMP_pressure;BME280_temperature;BME280_humidity;BME280_pressure;Samples;Min_cycle;Max_cycle;Signal;HPM_P1;HPM_P2
2023/01/16 00:04:55;;;;;;;9.20;4.20;;;;;;;-1.31;100.00;100931.58;105655;1291;601047;-88
2023/01/16 00:07:43;;;;;;;10.60;4.20;;;;;;;-1.21;100.00;100924.72;108245;1268;62052;-88
2023/01/16 00:10:30;;;;;;;13.70;5.50;;;;;;;-1.13;100.00;100926.70;108335;1268;61255;-88
2023/01/16 00:13:18;;;;;;;12.40;4.90;;;;;;;-0.99;100.00;100922.75;108264;1268;73177;-89
2023/01/16 00:16:06;;;;;;;10.10;4.20;;;;;;;-0.92;100.00;100918.48;108252;1268;70969;-87
2023/01/16 00:18:54;;;;;;;5.90;3.30;;;;;;;-0.89;100.00;100918.97;108245;1267;146432;-88
2023/01/16 00:21:41;;;;;;;7.00;3.40;;;;;;;-0.82;100.00;100914.40;108445;1266;63550;-87
2023/01/16 00:24:29;;;;;;;11.60;4.50;;;;;;;-0.78;100.00;100913.36;108465;1265;61427;-88
2023/01/16 00:27:16;;;;;;;12.10;4.10;;;;;;;-0.74;100.00;100915.04;108518;1263;73253;-90
2023/01/16 00:30:04;;;;;;;8.00;3.70;;;;;;;-0.68;100.00;100910.64;108442;1266;70853;-88
2023/01/16 00:32:52;;;;;;;11.60;4.20;;;;;;;-0.63;100.00;100910.77;108534;1265;74737;-88
2023/01/16 00:35:39;;;;;;;8.30;3.70;;;;;;;-0.58;100.00;100905.67;108619;1263;62054;-89
2023/01/16 00:38:27;;;;;;;6.00;2.90;;;;;;;-0.49;100.00;100904.17;108650;1264;63304;-87
2023/01/16 00:41:14;;;;;;;6.80;3.00;;;;;;;-0.32;100.00;100904.45;108602;1264;73791;-88
2023/01/16 00:44:02;;;;;;;11.90;3.80;;;;;;;-0.14;100.00;100895.92;108498;1263;70995;-89
2023/01/16 00:46:50;;;;;;;9.40;3.20;;;;;;;-0.15;100.00;100897.11;108552;1263;75288;-87
2023/01/16 00:49:37;;;;;;;9.90;3.60;;;;;;;-0.14;100.00;100891.65;108599;1263;61579;-89
2023/01/16 00:52:25;;;;;;;9.10;3.40;;;;;;;-0.15;100.00;100890.63;108612;1263;61368;-87
2023/01/16 00:55:12;;;;;;;9.10;3.80;;;;;;;-0.10;100.00;100891.20;108623;1263;75215;-89
2023/01/16 00:58:00;;;;;;;9.20;3.80;;;;;;;-0.06;100.00;100889.77;108620;1265;70332;-87
2023/01/16 01:00:47;;;;;;;9.20;3.30;;;;;;;-0.01;100.00;100891.89;108541;1263;73498;-87
2023/01/16 01:03:35;;;;;;;6.90;3.10;;;;;;;0.02;100.00;100883.98;108526;1263;60180;-89
2023/01/16 01:06:23;;;;;;;10.60;4.20;;;;;;;0.16;100.00;100877.55;108675;1263;61323;-87
2023/01/16 01:09:11;;;;;;;7.60;3.90;;;;;;;0.26;100.00;100876.40;108609;1263;75408;-88
2023/01/16 01:11:58;;;;;;;4.80;2.70;;;;;;;0.28;100.00;100876.15;108581;1263;69660;-87
2023/01/16 01:14:46;;;;;;;7.00;3.50;;;;;;;0.27;100.00;100871.64;108516;1263;75588;-85
2023/01/16 01:17:33;;;;;;;8.60;3.40;;;;;;;0.36;100.00;100869.86;108518;1263;63371;-86
2023/01/16 01:20:21;;;;;;;5.70;3.30;;;;;;;0.33;100.00;100864.02;108577;1263;61158;-86
2023/01/16 01:23:08;;;;;;;9.90;4.00;;;;;;;0.33;100.00;100861.37;108510;1263;74126;-87
2023/01/16 01:25:56;;;;;;;6.70;3.30;;;;;;;0.45;100.00;100860.63;108628;1263;69677;-86
2023/01/16 01:28:43;;;;;;;9.50;3.90;;;;;;;0.45;100.00;100852.39;108502;1264;74590;-85
2023/01/16 01:31:31;;;;;;;8.40;4.10;;;;;;;0.44;100.00;100851.27;108557;1263;60457;-87
2023/01/16 01:34:18;;;;;;;12.10;3.80;;;;;;;0.57;100.00;100849.64;108563;1263;62361;-86
2023/01/16 01:37:06;;;;;;;9.90;4.20;;;;;;;0.68;100.00;100838.36;108580;1263;75216;-87
2023/01/16 01:39:54;;;;;;;14.00;4.70;;;;;;;0.75;100.00;100836.55;108622;1263;70455;-87
2023/01/16 01:42:47;;;;;;;8.10;3.80;;;;;;;0.69;100.00;100831.01;108569;1264;73615;-85
2023/01/16 01:45:34;;;;;;;;;;;;;;;0.67;100.00;100832.20;108528;1263;62016;-85
2023/01/16 01:48:24;;;;;;;10.00;4.40;;;;;;;0.68;100.00;100826.04;108517;1264;62183;-86
2023/01/16 01:51:15;;;;;;;11.80;4.90;;;;;;;0.72;100.00;100821.58;108505;1263;75295;-85
2023/01/16 01:54:09;;;;;;;15.30;5.40;;;;;;;0.78;100.00;100825.52;108571;1264;69862;-86
2023/01/16 01:57:03;;;;;;;10.70;4.40;;;;;;;0.77;100.00;100825.10;108477;1264;74101;-86
2023/01/16 06:06:10;;;;;;;16.80;6.60;;;;;;;-1.04;100.00;100665.73;105496;1294;600261;-88
2023/01/16 06:08:58;;;;;;;23.10;8.90;;;;;;;-0.81;100.00;100669.06;108152;1268;63242;-89
2023/01/16 06:11:45;;;;;;;31.40;12.20;;;;;;;-0.66;100.00;100667.09;108300;1268;60417;-87
2023/01/16 06:14:36;;;;;;;33.60;12.20;;;;;;;-0.50;100.00;100671.88;108793;1257;74371;-89
2023/01/16 06:17:23;;;;;;;34.00;12.90;;;;;;;-0.34;100.00;100676.72;108875;1257;70800;-88
2023/01/16 06:20:11;;;;;;;28.00;11.90;;;;;;;-0.16;100.00;100678.62;108863;1255;177747;-89
2023/01/16 06:22:58;;;;;;;26.30;10.00;;;;;;;-0.05;100.00;100675.67;109046;1255;60850;-87
2023/01/16 06:25:48;;;;;;;24.10;8.30;;;;;;;0.04;100.00;100672.55;109082;1254;60935;-87
2023/01/16 06:28:36;;;;;;;15.80;6.40;;;;;;;0.16;100.00;100667.80;109276;1253;74422;-87
2023/01/16 06:31:24;;;;;;;15.40;6.00;;;;;;;0.23;100.00;100665.16;109117;1253;69791;-89
2023/01/16 06:34:12;;;;;;;13.40;6.20;;;;;;;0.33;100.00;100661.33;109090;1254;73646;-86
2023/01/16 06:36:59;;;;;;;15.30;6.60;;;;;;;0.49;100.00;100651.31;109198;1254;62134;-87
2023/01/16 06:39:47;;;;;;;11.00;5.40;;;;;;;0.58;100.00;100649.48;109077;1254;61124;-87
2023/01/16 06:42:34;;;;;;;10.90;5.20;;;;;;;0.70;100.00;100648.42;109225;1252;74349;-85
2023/01/16 06:45:22;;;;;;;11.70;5.30;;;;;;;0.79;100.00;100655.20;109220;1254;70857;-86
2023/01/16 06:48:09;;;;;;;12.40;5.80;;;;;;;0.89;100.00;100657.34;109159;1254;74761;-87
2023/01/16 06:50:58;;;;;;;12.80;6.10;;;;;;;1.01;100.00;100657.42;108968;1254;60374;-86
2023/01/16 06:53:46;;;;;;;12.40;5.30;;;;;;;1.05;100.00;100662.10;109180;1254;62150;-86
2023/01/16 06:56:33;;;;;;;10.60;4.90;;;;;;;1.12;100.00;100662.35;109041;1254;74552;-87
2023/01/16 06:59:21;;;;;;;11.90;5.70;;;;;;;1.17;100.00;100665.29;109018;1254;69801;-86
2023/01/16 07:02:09;;;;;;;10.10;4.50;;;;;;;1.25;100.00;100664.51;109122;1253;75465;-85
2023/01/16 07:04:56;;;;;;;11.40;5.00;;;;;;;1.35;100.00;100667.92;108965;1256;61845;-87
2023/01/16 07:07:44;;;;;;;10.80;5.10;;;;;;;1.40;100.00;100659.89;109177;1254;61949;-86
2023/01/16 07:10:31;;;;;;;11.00;5.00;;;;;;;1.49;100.00;100667.10;109057;1254;74233;-87
2023/01/16 07:13:26;;;;;;;11.40;5.80;;;;;;;1.54;100.00;100668.04;109267;1253;71489;-87
2023/01/16 07:22:38;;;;;;;11.30;5.80;;;;;;;1.58;100.00;100663.61;109029;1254;62256;-87
2023/01/16 07:25:30;;;;;;;11.80;5.30;;;;;;;1.68;100.00;100659.98;109181;1254;74002;-86
2023/01/16 07:28:18;;;;;;;;;;;;;;;1.72;100.00;100662.55;109009;1255;71209;-87
2023/01/16 07:31:06;;;;;;;13.80;6.30;;;;;;;1.68;100.00;100654.54;109088;1254;73630;-87
2023/01/16 07:33:54;;;;;;;13.40;5.50;;;;;;;1.70;100.00;100656.48;108997;1254;60460;-86
2023/01/16 07:36:41;;;;;;;12.10;5.70;;;;;;;1.77;100.00;100650.68;109048;1254;61715;-85
2023/01/16 07:39:29;;;;;;;13.80;5.80;;;;;;;1.86;100.00;100648.27;109324;1253;74150;-86
2023/01/16 07:42:16;;;;;;;11.90;5.80;;;;;;;1.91;100.00;100648.93;109280;1253;70194;-88
2023/01/16 07:45:04;;;;;;;12.10;5.30;;;;;;;1.96;100.00;100645.45;109128;1253;75407;-88
2023/01/16 07:47:52;;;;;;;15.00;6.40;;;;;;;2.01;100.00;100649.61;109154;1254;63094;-87
2023/01/16 07:50:39;;;;;;;12.10;5.70;;;;;;;2.08;100.00;100651.38;109220;1253;61582;-88
2023/01/16 07:53:28;;;;;;;11.00;5.80;;;;;;;2.16;100.00;100657.09;109054;1254;75314;-85
2023/01/16 07:56:16;;;;;;;10.80;5.60;;;;;;;2.15;100.00;100653.33;109051;1253;71136;-86
2023/01/16 07:59:03;;;;;;;13.40;6.00;;;;;;;2.19;100.00;100649.77;109010;1254;73333;-86
2023/01/16 12:06:52;;;;;;;21.40;8.70;;;;;;;1.19;100.00;100463.67;105810;1290;601569;-90
2023/01/16 12:10:39;;;;;;;35.00;12.70;;;;;;;1.82;100.00;100467.83;108405;1267;63553;-90
2023/01/16 12:17:00;;;;;;;39.10;16.00;;;;;;;2.20;100.00;100457.13;108397;1266;73477;-90
2023/01/16 12:19:52;;;;;;;28.30;10.90;;;;;;;2.35;100.00;100457.35;108276;1263;194648;-89
2023/01/16 12:22:58;;;;;;;20.70;9.30;;;;;;;2.47;100.00;100453.92;108959;1257;74787;-90
2023/01/16 12:25:54;;;;;;;21.10;11.70;;;;;;;2.65;100.00;100451.92;108896;1257;62076;-87
2023/01/16 12:29:03;;;;;;;14.80;7.10;;;;;;;2.65;100.00;100446.36;108951;1256;62671;-86
2023/01/16 12:32:01;;;;;;;19.00;8.00;;;;;;;2.81;100.00;100449.02;108954;1258;74345;-86
2023/01/16 12:34:56;;;;;;;21.60;10.20;;;;;;;2.95;100.00;100445.95;108925;1257;70927;-86
2023/01/16 12:38:07;;;;;;;21.40;10.00;;;;;;;2.96;100.00;100448.30;108931;1257;74754;-86
2023/01/16 12:44:34;;;;;;;40.60;20.80;;;;;;;3.15;100.00;100447.88;108952;1257;61226;-85
2023/01/16 12:47:30;;;;;;;19.80;9.50;;;;;;;3.22;100.00;100453.20;108912;1256;75210;-87
2023/01/16 12:50:21;;;;;;;23.80;11.40;;;;;;;3.29;100.00;100453.52;108877;1257;71144;-87
2023/01/16 12:53:52;;;;;;;26.10;13.70;;;;;;;3.34;100.00;100456.86;108926;1257;75220;-87
2023/01/16 12:56:46;;;;;;;19.10;8.50;;;;;;;3.39;100.00;100447.92;108967;1257;61347;-88
2023/01/16 12:59:38;;;;;;;21.80;10.50;;;;;;;3.45;100.00;100446.41;108921;1256;61542;-85
2023/01/16 13:02:37;;;;;;;38.00;16.10;;;;;;;3.40;100.00;100443.48;108902;1257;75240;-88
2023/01/16 13:05:26;;;;;;;66.50;27.40;;;;;;;3.41;100.00;100437.79;108843;1257;70867;-88
2023/01/16 13:08:19;;;;;;;49.00;21.60;;;;;;;3.42;100.00;100433.30;108843;1260;75299;-89
2023/01/16 13:14:22;;;;;;;43.30;15.70;;;;;;;3.53;100.00;100433.04;108816;1257;61758;-88
2023/01/16 13:17:11;;;;;;;22.20;10.00;;;;;;;3.55;100.00;100429.30;108765;1260;74047;-89
2023/01/16 13:20:13;;;;;;;50.80;17.70;;;;;;;3.61;100.00;100425.08;108774;1260;70869;-86
2023/01/16 13:23:08;;;;;;;48.00;16.80;;;;;;;3.55;100.00;100424.07;108843;1260;74427;-89
2023/01/16 13:26:02;;;;;;;39.90;14.10;;;;;;;3.40;100.00;100419.02;108743;1260;62028;-90
2023/01/16 13:29:02;;;;;;;31.90;13.80;;;;;;;3.34;100.00;100417.20;108781;1259;61976;-87
2023/01/16 13:31:56;;;;;;;54.80;17.00;;;;;;;3.41;100.00;100414.52;108815;1259;76473;-88
2023/01/16 13:34:53;;;;;;;33.30;12.30;;;;;;;3.52;100.00;100419.25;108862;1260;70668;-89
2023/01/16 13:38:01;;;;;;;65.10;19.50;;;;;;;3.80;100.00;100419.05;108775;1259;73953;-90
2023/01/16 13:41:15;;;;;;;31.30;10.70;;;;;;;3.85;100.00;100410.55;108856;1259;61989;-88
2023/01/16 13:47:24;;;;;;;36.30;11.80;;;;;;;3.90;100.00;100407.48;108849;1260;74082;-88
2023/01/16 13:50:16;;;;;;;34.60;12.90;;;;;;;3.87;100.00;100402.33;108788;1260;70914;-89
2023/01/16 13:53:06;;;;;;;55.00;17.10;;;;;;;3.93;100.00;100403.23;108866;1258;73857;-88
2023/01/16 13:56:14;;;;;;;33.70;12.90;;;;;;;3.99;100.00;100397.45;108782;1259;61397;-88
2023/01/16 13:59:07;;;;;;;19.70;8.40;;;;;;;3.95;100.00;100395.15;108750;1260;62437;-89
2023/01/16 18:08:09;;;;;;;43.80;16.60;;;;;;;1.60;100.00;100340.58;105689;1291;601066;-91
2023/01/16 18:17:20;;;;;;;159.80;53.90;;;;;;;2.33;100.00;100342.45;108579;1263;60961;-90
2023/01/16 18:17:34;;;;;;;68.30;28.30;;;;;;;2.93;100.00;100332.91;108101;1269;74887;-91
2023/01/16 18:20:21;;;;;;;70.80;26.30;;;;;;;3.22;100.00;100332.59;108598;1263;69887;-92
2023/01/16 18:23:12;;;;;;;38.90;16.80;;;;;;;3.67;100.00;100328.73;108563;1260;71728;-90
2023/01/16 18:25:59;;;;;;;43.30;15.70;;;;;;;3.89;100.00;100322.52;108735;1260;61542;-92
2023/01/16 18:28:49;;;;;;;60.70;18.00;;;;;;;3.99;100.00;100315.80;108768;1260;61214;-85
2023/01/16 18:31:37;;;;;;;28.80;17.00;;;;;;;4.11;100.00;100308.74;108906;1260;73169;-85
2023/01/16 18:34:24;;;;;;;17.50;9.70;;;;;;;4.27;100.00;100305.48;108867;1259;69320;-87
2023/01/16 18:37:13;;;;;;;34.40;13.50;;;;;;;4.42;100.00;100305.40;108777;1260;72770;-89
2023/01/16 19:01:57;;;;;;;28.40;9.80;;;;;;;5.25;100.00;100305.02;108930;1256;73843;-89
2023/01/16 19:04:45;;;;;;;33.70;12.60;;;;;;;5.18;100.00;100306.20;108980;1258;70029;-89
2023/01/16 19:07:33;;;;;;;29.80;11.10;;;;;;;5.03;100.00;100301.35;108942;1256;72540;-90
2023/01/16 19:10:26;;;;;;;17.50;8.20;;;;;;;5.09;100.00;100302.92;109024;1257;62275;-88
2023/01/16 19:13:13;;;;;;;17.40;7.50;;;;;;;5.09;100.00;100303.56;108942;1256;61579;-89
2023/01/16 19:19:10;;;;;;;23.60;9.50;;;;;;;5.30;100.00;100300.16;108938;1256;70954;-90
2023/01/16 19:21:58;;;;;;;25.00;9.90;;;;;;;5.46;100.00;100298.27;108960;1256;75578;-90
2023/01/16 19:24:46;;;;;;;13.10;6.80;;;;;;;5.50;100.00;100290.89;108880;1256;62575;-89
2023/01/16 19:27:34;;;;;;;10.20;6.10;;;;;;;5.36;100.00;100292.01;108927;1257;62476;-88
2023/01/16 19:30:21;;;;;;;13.60;5.70;;;;;;;5.38;100.00;100287.25;108965;1256;75202;-90
2023/01/16 19:33:09;;;;;;;17.30;6.20;;;;;;;5.34;100.00;100286.50;108927;1255;69790;-88
2023/01/16 19:35:56;;;;;;;15.70;6.30;;;;;;;5.12;100.00;100283.08;108955;1256;74504;-89
2023/01/16 19:38:44;;;;;;;16.40;9.50;;;;;;;4.87;100.00;100287.29;108985;1255;63023;-89
2023/01/16 19:47:43;;;;;;;18.30;6.40;;;;;;;5.17;100.00;100292.91;108987;1256;70397;-90
2023/01/16 19:50:33;;;;;;;14.40;6.30;;;;;;;5.15;100.00;100289.63;108940;1256;73598;-89
2023/01/16 19:53:20;;;;;;;12.70;6.40;;;;;;;5.10;100.00;100283.55;108950;1260;62536;-89
2023/01/16 19:56:08;;;;;;;21.30;8.40;;;;;;;5.08;100.00;100282.52;108986;1255;61396;-88
2023/01/16 19:58:56;;;;;;;23.30;9.10;;;;;;;5.12;100.00;100281.66;109008;1257;72964;-90
